Estación meteorológica de Montseny - Vallcàrquera (Vallès Oriental, Parc Natural del Montseny)

Consulta los datos en tiempo real de la estación meteorológica de Montseny - Vallcàrquera





Hora UTC 03:00
Temperatura 18.0 ºC
Humedad 77.5 %
Pluja 0.0 mm
Velocidad viento 2.7 km/h
Dirección viento ENE
Radiación solar 0.0 W/m²

Datos diarios 2026-09-03



Hora UTC (invierno +1h; verano +2h)
Temperatura (ºC) Humedad (%) Velocidad viento (km/h) Precipitación (mm) Radiación solar (W/m²)
Hora UTC Aire Humedad Vel. Dir. Vel. Max Dir. Intent. máx 5 min. Rad. Sol.
00:05 19.1 73.6 1.1 NNE 1.1 NE 0.0 0.0
00:10 19.1 73.6 1.1 NE 2.5 E 0.0 0.0
00:15 18.9 74.9 2.1 NE 4.6 ENE 0.0 0.0
00:20 19.1 73.6 2.2 NE 3.9 NE 0.0 0.0
00:25 19.3 72.6 1.6 N 3.5 NNE 0.0 0.0
00:30 19.2 72.7 1.1 N 2.1 N 0.0 0.0
00:35 19.1 73.3 1.0 N 2.5 N 0.0 0.0
00:40 19.0 74.0 0.8 NNE 2.1 N 0.0 0.0
00:45 19.0 74.1 1.3 NNE 2.8 NNE 0.0 0.0
00:50 19.0 74.0 0.7 N 2.5 N 0.0 0.0
00:55 18.9 74.4 1.2 NNE 2.1 N 0.0 0.0
01:00 18.9 74.4 1.0 NE 2.8 ENE 0.0 0.0
01:05 18.6 75.5 2.2 ENE 3.2 ENE 0.0 0.0
01:10 18.4 76.3 2.3 ENE 4.9 ENE 0.0 0.0
01:15 18.5 75.9 1.3 NNE 3.2 NE 0.0 0.0
01:20 18.6 75.7 0.5 NE 1.4 NE 0.0 0.0
01:25 18.7 75.1 1.5 NE 3.2 ENE 0.0 0.0
01:30 18.6 75.4 2.4 NE 4.2 ENE 0.0 0.0
01:35 18.4 76.1 3.3 ENE 5.6 ENE 0.0 0.0
01:40 18.2 76.7 4.0 ENE 6.0 ENE 0.0 0.0
01:45 18.4 75.7 2.5 NE 4.6 NE 0.0 0.0
01:50 18.4 75.7 0.5 N 1.8 N 0.0 0.0
01:55 18.3 76.0 1.9 NE 3.2 NE 0.0 0.0
02:00 18.3 76.1 1.8 NNE 4.6 ENE 0.0 0.0
02:05 18.2 76.4 2.3 NE 3.9 ENE 0.0 0.0
02:10 18.0 77.1 3.7 ENE 4.9 ENE 0.0 0.0
02:15 18.0 77.4 3.7 ENE 5.6 E 0.0 0.0
02:20 18.1 76.8 2.4 NE 4.2 NE 0.0 0.0
02:25 18.0 77.2 2.1 NE 3.9 NE 0.0 0.0
02:30 18.2 76.4 2.7 NE 4.6 ENE 0.0 0.0
02:35 18.2 76.3 1.7 NE 3.2 ENE 0.0 0.0
02:40 17.9 77.8 3.3 ENE 4.9 ENE 0.0 0.0
02:45 17.8 78.2 3.5 ENE 5.3 ENE 0.0 0.0
02:50 17.9 77.8 3.7 ENE 5.6 NE 0.0 0.0
02:55 18.1 77.2 1.9 NE 4.9 ENE 0.0 0.0
03:00 18.0 77.5 2.7 ENE 4.6 ENE 0.0 0.0
Máxima 19.3 78.2 4.0 ENE 6.0 ENE 0.0 0.0
Mínima 17.8 72.6
Total 0.0